Observation data for Floydada on 05/24/2020      Previous  Date  Next       Current Mesonet Observations  Soil Data  Daily Summary Page  Observations in Plain Language
KFLS 240500Z 16011KT 18/11 A2984 RMK A01 T01830107  RH  062%=      5-min Rain = 0
KFLS 240505Z 14010KT 19/10 A2983 RMK A01 T01850104  RH  060%=      5-min Rain = 0
KFLS 240510Z 16011KT 19/10 A2984 RMK A01 T01880103  RH  059%=      5-min Rain = 0
KFLS 240515Z 15010KT 19/11 A2984 RMK A01 T01870105  RH  060%=      5-min Rain = 0
KFLS 240520Z 14009KT 19/11 A2984 RMK A01 T01850105  RH  061%=      5-min Rain = 0
KFLS 240525Z 14010KT 19/11 A2984 RMK A01 T01850106  RH  061%=      5-min Rain = 0
KFLS 240530Z 15008KT 18/11 A2984 RMK A01 T01840107  RH  062%=      5-min Rain = 0
KFLS 240535Z 16006KT 18/11 A2984 RMK A01 T01830106  RH  062%=      5-min Rain = 0
KFLS 240540Z 16006KT 18/11 A2984 RMK A01 T01810107  RH  063%=      5-min Rain = 0
KFLS 240545Z 16008KT 18/11 A2985 RMK A01 T01800106  RH  063%=      5-min Rain = 0
KFLS 240550Z 15008KT 18/11 A2985 RMK A01 T01810106  RH  062%=      5-min Rain = 0
KFLS 240555Z 15009KT 18/10 A2985 RMK A01 T01830104  RH  061%=      5-min Rain = 0
KFLS 240600Z 15010KT 18/10 A2985 RMK A01 T01840103  RH  060%=      5-min Rain = 0
KFLS 240605Z 16010KT 19/10 A2985 RMK A01 T01870101  RH  058%=      5-min Rain = 0
KFLS 240610Z 16009KT 19/10 A2985 RMK A01 T01860100  RH  058%=      5-min Rain = 0
KFLS 240615Z 17008KT 18/10 A2985 RMK A01 T01840100  RH  059%=      5-min Rain = 0
KFLS 240620Z 16010KT 19/10 A2985 RMK A01 T01860099  RH  058%=      5-min Rain = 0
KFLS 240625Z 15010KT 18/10 A2986 RMK A01 T01840101  RH  059%=      5-min Rain = 0
KFLS 240630Z 16010KT 18/10 A2986 RMK A01 T01830103  RH  060%=      5-min Rain = 0
KFLS 240635Z 15010G16KT 18/11 A2986 RMK A01 T01820105  RH  061%=      5-min Rain = 0
KFLS 240640Z 17011KT 18/11 A2987 RMK A01 T01830107  RH  062%=      5-min Rain = 0
KFLS 240645Z 15012KT 18/11 A2986 RMK A01 T01830109  RH  063%=      5-min Rain = 0
KFLS 240650Z 18010KT 18/11 A2987 RMK A01 T01800111  RH  065%=      5-min Rain = 0
KFLS 240655Z 17011KT 18/11 A2986 RMK A01 T01790113  RH  066%=      5-min Rain = 0
KFLS 240700Z 16011KT 18/12 A2986 RMK A01 T01780115  RH  068%=      5-min Rain = 0
KFLS 240705Z 17011KT 18/12 A2986 RMK A01 T01760116  RH  069%=      5-min Rain = 0
KFLS 240710Z 16012G17KT 17/12 A2986 RMK A01 T01740120  RH  072%=      5-min Rain = 0
KFLS 240715Z 17011KT 17/12 A2986 RMK A01 T01720123  RH  074%=      5-min Rain = 0
KFLS 240720Z 17011KT 17/13 A2986 RMK A01 T01690125  RH  077%=      5-min Rain = 0
KFLS 240725Z 17010KT 17/13 A2986 RMK A01 T01670126  RH  078%=      5-min Rain = 0
KFLS 240730Z 17008KT 17/13 A2986 RMK A01 T01650126  RH  079%=      5-min Rain = 0
KFLS 240735Z 17008KT 16/13 A2986 RMK A01 T01640126  RH  080%=      5-min Rain = 0
KFLS 240740Z 18009KT 16/13 A2986 RMK A01 T01630127  RH  081%=      5-min Rain = 0
KFLS 240745Z 18009KT 16/13 A2986 RMK A01 T01620128  RH  082%=      5-min Rain = 0
KFLS 240750Z 18010KT 16/13 A2986 RMK A01 T01610128  RH  082%=      5-min Rain = 0
KFLS 240755Z 17010KT 16/13 A2986 RMK A01 T01610127  RH  082%=      5-min Rain = 0
KFLS 240800Z 17011KT 16/13 A2986 RMK A01 T01610127  RH  082%=      5-min Rain = 0
KFLS 240805Z 17009KT 16/13 A2986 RMK A01 T01600126  RH  082%=      5-min Rain = 0
KFLS 240810Z 17009KT 16/13 A2986 RMK A01 T01590126  RH  082%=      5-min Rain = 0
KFLS 240815Z 17009KT 16/13 A2986 RMK A01 T01580127  RH  083%=      5-min Rain = 0
KFLS 240820Z 18008KT 16/13 A2985 RMK A01 T01570127  RH  084%=      5-min Rain = 0
KFLS 240825Z 17009KT 16/13 A2985 RMK A01 T01570126  RH  084%=      5-min Rain = 0
KFLS 240830Z 17009KT 16/13 A2986 RMK A01 T01570127  RH  084%=      5-min Rain = 0
KFLS 240835Z 17009KT 16/13 A2986 RMK A01 T01560127  RH  084%=      5-min Rain = 0
KFLS 240840Z 17009KT 16/13 A2986 RMK A01 T01560127  RH  084%=      5-min Rain = 0
KFLS 240845Z 17008KT 15/13 A2986 RMK A01 T01540126  RH  085%=      5-min Rain = 0
KFLS 240850Z 16008KT 15/13 A2986 RMK A01 T01540127  RH  085%=      5-min Rain = 0
KFLS 240855Z 16008KT 15/13 A2986 RMK A01 T01530126  RH  086%=      5-min Rain = 0
KFLS 240900Z 16007KT 15/13 A2986 RMK A01 T01520126  RH  086%=      5-min Rain = 0
KFLS 240905Z 15007KT 15/13 A2986 RMK A01 T01510125  RH  086%=      5-min Rain = 0
KFLS 240910Z 15007KT 15/13 A2986 RMK A01 T01490125  RH  087%=      5-min Rain = 0
KFLS 240915Z 15007KT 15/13 A2985 RMK A01 T01490125  RH  087%=      5-min Rain = 0
KFLS 240920Z 15006KT 15/12 A2986 RMK A01 T01470124  RH  088%=      5-min Rain = 0
KFLS 240925Z 17005KT 14/12 A2986 RMK A01 T01440123  RH  089%=      5-min Rain = 0
KFLS 240930Z 13006KT 14/12 A2986 RMK A01 T01430123  RH  089%=      5-min Rain = 0
KFLS 240935Z 16006KT 14/12 A2986 RMK A01 T01420122  RH  090%=      5-min Rain = 0
KFLS 240940Z 14006KT 14/12 A2986 RMK A01 T01410123  RH  090%=      5-min Rain = 0
KFLS 240945Z 14006KT 14/12 A2986 RMK A01 T01410123  RH  090%=      5-min Rain = 0
KFLS 240950Z 15005KT 14/12 A2986 RMK A01 T01400122  RH  091%=      5-min Rain = 0
KFLS 240955Z 15006KT 14/12 A2986 RMK A01 T01390122  RH  091%=      5-min Rain = 0
KFLS 241000Z 15006KT 14/12 A2986 RMK A01 T01380121  RH  091%=      5-min Rain = 0
KFLS 241005Z 16006KT 14/12 A2986 RMK A01 T01370121  RH  092%=      5-min Rain = 0
KFLS 241010Z 16006KT 14/12 A2986 RMK A01 T01370122  RH  092%=      5-min Rain = 0
KFLS 241015Z 16008KT 14/12 A2986 RMK A01 T01380122  RH  092%=      5-min Rain = 0
KFLS 241020Z 17008KT 14/12 A2986 RMK A01 T01400123  RH  091%=      5-min Rain = 0
KFLS 241025Z 17010KT 14/12 A2986 RMK A01 T01430123  RH  089%=      5-min Rain = 0
KFLS 241030Z 17009KT 15/12 A2986 RMK A01 T01450122  RH  088%=      5-min Rain = 0
KFLS 241035Z 18009KT 15/12 A2986 RMK A01 T01450121  RH  087%=      5-min Rain = 0
KFLS 241040Z 17008KT 14/12 A2985 RMK A01 T01440119  RH  087%=      5-min Rain = 0
KFLS 241045Z 18009KT 14/12 A2986 RMK A01 T01440118  RH  086%=      5-min Rain = 0
KFLS 241050Z 17009KT 14/12 A2986 RMK A01 T01440118  RH  086%=      5-min Rain = 0
KFLS 241055Z 17009KT 15/12 A2986 RMK A01 T01450118  RH  086%=      5-min Rain = 0
KFLS 241100Z 17009KT 15/12 A2986 RMK A01 T01450118  RH  085%=      5-min Rain = 0
KFLS 241105Z 17009KT 15/12 A2986 RMK A01 T01460118  RH  085%=      5-min Rain = 0
KFLS 241110Z 17008KT 15/12 A2985 RMK A01 T01450117  RH  085%=      5-min Rain = 0
KFLS 241115Z 17008KT 15/12 A2985 RMK A01 T01450117  RH  085%=      5-min Rain = 0
KFLS 241120Z 17008KT 15/12 A2985 RMK A01 T01450117  RH  085%=      5-min Rain = 0
KFLS 241125Z 18009KT 15/12 A2985 RMK A01 T01450117  RH  085%=      5-min Rain = 0
KFLS 241130Z 18009KT 14/12 A2985 RMK A01 T01440118  RH  086%=      5-min Rain = 0
KFLS 241135Z 18010KT 15/12 A2986 RMK A01 T01450118  RH  086%=      5-min Rain = 0
KFLS 241140Z 18010KT 15/12 A2985 RMK A01 T01460118  RH  085%=      5-min Rain = 0
KFLS 241145Z 18011G16KT 15/12 A2985 RMK A01 T01470119  RH  085%=      5-min Rain = 0
KFLS 241150Z 19011KT 15/12 A2985 RMK A01 T01480118  RH  084%=      5-min Rain = 0
KFLS 241155Z 18012KT 15/12 A2986 RMK A01 T01500118  RH  082%=      5-min Rain = 0
KFLS 241200Z 18012KT 15/12 A2986 RMK A01 T01510117  RH  082%=      5-min Rain = 0
KFLS 241205Z 18011KT 15/12 A2986 RMK A01 T01500117  RH  082%=      5-min Rain = 0
KFLS 241210Z 18012KT 15/12 A2985 RMK A01 T01510117  RH  082%=      5-min Rain = 0
KFLS 241215Z 17013KT 15/12 A2985 RMK A01 T01530118  RH  081%=      5-min Rain = 0
KFLS 241220Z 17013KT 16/12 A2985 RMK A01 T01570119  RH  079%=      5-min Rain = 0
KFLS 241225Z 17012KT 16/12 A2985 RMK A01 T01600119  RH  078%=      5-min Rain = 0
KFLS 241230Z 17012KT 16/12 A2985 RMK A01 T01620119  RH  077%=      5-min Rain = 0
KFLS 241235Z 17011KT 16/12 A2986 RMK A01 T01640120  RH  076%=      5-min Rain = 0
KFLS 241240Z 17012G17KT 17/12 A2986 RMK A01 T01680120  RH  075%=      5-min Rain = 0
KFLS 241245Z 17012KT 17/12 A2986 RMK A01 T01710120  RH  074%=      5-min Rain = 0
KFLS 241250Z 17012KT 17/12 A2986 RMK A01 T01730121  RH  072%=      5-min Rain = 0
KFLS 241255Z 16012KT 18/12 A2986 RMK A01 T01760121  RH  072%=      5-min Rain = 0
KFLS 241300Z 16013KT 18/12 A2986 RMK A01 T01770121  RH  071%=      5-min Rain = 0
KFLS 241305Z 17012KT 18/12 A2986 RMK A01 T01800122  RH  070%=      5-min Rain = 0
KFLS 241310Z 17013KT 18/12 A2986 RMK A01 T01820122  RH  069%=      5-min Rain = 0
KFLS 241315Z 17013G19KT 19/12 A2986 RMK A01 T01860123  RH  068%=      5-min Rain = 0
KFLS 241320Z 17013KT 19/12 A2986 RMK A01 T01890122  RH  066%=      5-min Rain = 0
KFLS 241325Z 17013KT 19/12 A2986 RMK A01 T01930122  RH  065%=      5-min Rain = 0
KFLS 241330Z 17013G20KT 20/12 A2986 RMK A01 T01960122  RH  063%=      5-min Rain = 0
KFLS 241335Z 18014G19KT 20/12 A2986 RMK A01 T01990121  RH  062%=      5-min Rain = 0
KFLS 241340Z 18015G20KT 20/12 A2986 RMK A01 T02000120  RH  061%=      5-min Rain = 0
KFLS 241345Z 18015KT 20/12 A2986 RMK A01 T02030121  RH  060%=      5-min Rain = 0
KFLS 241350Z 18015G21KT 21/12 A2986 RMK A01 T02050122  RH  060%=      5-min Rain = 0
KFLS 241355Z 18017G22KT 21/12 A2986 RMK A01 T02050121  RH  060%=      5-min Rain = 0
KFLS 241400Z 17017G22KT 21/12 A2986 RMK A01 T02060123  RH  060%=      5-min Rain = 0
KFLS 241405Z 18017G22KT 21/13 A2986 RMK A01 T02110126  RH  060%=      5-min Rain = 0
KFLS 241410Z 18018G24KT 21/13 A2986 RMK A01 T02100126  RH  060%=      5-min Rain = 0
KFLS 241415Z 18019G25KT 21/13 A2986 RMK A01 T02130127  RH  059%=      5-min Rain = 0
KFLS 241420Z 18021G27KT 21/13 A2986 RMK A01 T02140128  RH  059%=      5-min Rain = 0
KFLS 241425Z 18021G26KT 21/13 A2985 RMK A01 T02140129  RH  060%=      5-min Rain = 0
KFLS 241430Z 19021G27KT 22/13 A2985 RMK A01 T02180132  RH  059%=      5-min Rain = 0
KFLS 241435Z 19021G27KT 22/13 A2985 RMK A01 T02190133  RH  059%=      5-min Rain = 0
KFLS 241440Z 19021G27KT 22/14 A2985 RMK A01 T02210135  RH  059%=      5-min Rain = 0
KFLS 241445Z 18021G28KT 22/14 A2985 RMK A01 T02220137  RH  059%=      5-min Rain = 0
KFLS 241450Z 19022G29KT 22/14 A2985 RMK A01 T02240138  RH  059%=      5-min Rain = 0
KFLS 241455Z 19021G28KT 23/14 A2985 RMK A01 T02270141  RH  059%=      5-min Rain = 0
KFLS 241500Z 19021G27KT 23/14 A2985 RMK A01 T02300143  RH  059%=      5-min Rain = 0
KFLS 241505Z 19022G29KT 23/15 A2985 RMK A01 T02280145  RH  061%=      5-min Rain = 0
KFLS 241510Z 19021G28KT 23/15 A2985 RMK A01 T02320147  RH  060%=      5-min Rain = 0
KFLS 241515Z 20021G26KT 23/15 A2985 RMK A01 T02320148  RH  060%=      5-min Rain = 0
KFLS 241520Z 19021G27KT 23/15 A2985 RMK A01 T02310148  RH  061%=      5-min Rain = 0
KFLS 241525Z 20022G28KT 23/15 A2984 RMK A01 T02320148  RH  061%=      5-min Rain = 0
KFLS 241530Z 19020G28KT 23/15 A2985 RMK A01 T02340149  RH  060%=      5-min Rain = 0.01
KFLS 241535Z 19020G27KT 24/15 A2985 RMK A01 T02350149  RH  060%=      5-min Rain = 0
KFLS 241540Z 19021G27KT 24/15 A2984 RMK A01 T02350149  RH  060%=      5-min Rain = 0
KFLS 241545Z 19020G25KT 23/15 A2984 RMK A01 T02330150  RH  061%=      5-min Rain = 0
KFLS 241550Z 19021G28KT 24/15 A2984 RMK A01 T02350149  RH  060%=      5-min Rain = 0
KFLS 241555Z 18021G26KT 23/15 A2984 RMK A01 T02340150  RH  060%=      5-min Rain = 0
KFLS 241600Z 18021G27KT 24/15 A2984 RMK A01 T02350150  RH  060%=      5-min Rain = 0
KFLS 241605Z 19018G23KT 24/15 A2984 RMK A01 T02440153  RH  058%=      5-min Rain = 0
KFLS 241610Z 19019G25KT 25/15 A2984 RMK A01 T02450153  RH  058%=      5-min Rain = 0
KFLS 241615Z 19020G26KT 24/15 A2984 RMK A01 T02430153  RH  058%=      5-min Rain = 0
KFLS 241620Z 20020G25KT 25/15 A2984 RMK A01 T02460154  RH  058%=      5-min Rain = 0
KFLS 241625Z 19019G25KT 25/16 A2985 RMK A01 T02450155  RH  058%=      5-min Rain = 0
KFLS 241630Z 19020G26KT 25/16 A2985 RMK A01 T02470155  RH  058%=      5-min Rain = 0
KFLS 241635Z 20017G22KT 25/16 A2984 RMK A01 T02480156  RH  058%=      5-min Rain = 0
KFLS 241640Z 20019G24KT 25/16 A2984 RMK A01 T02480155  RH  057%=      5-min Rain = 0
KFLS 241645Z 19017G22KT 26/16 A2984 RMK A01 T02550158  RH  056%=      5-min Rain = 0
KFLS 241650Z 18018G25KT 25/16 A2985 RMK A01 T02530157  RH  057%=      5-min Rain = 0
KFLS 241655Z 19018G24KT 25/16 A2985 RMK A01 T02510157  RH  057%=      5-min Rain = 0
KFLS 241700Z 19018G27KT 25/16 A2985 RMK A01 T02500156  RH  057%=      5-min Rain = 0
KFLS 241705Z 19017G23KT 26/16 A2985 RMK A01 T02590159  RH  055%=      5-min Rain = 0
KFLS 241710Z 19017G23KT 26/16 A2984 RMK A01 T02590159  RH  055%=      5-min Rain = 0
KFLS 241715Z 20017G23KT 26/16 A2984 RMK A01 T02600157  RH  054%=      5-min Rain = 0
KFLS 241720Z 20016G23KT 26/16 A2984 RMK A01 T02600157  RH  054%=      5-min Rain = 0
KFLS 241725Z 20017G24KT 26/16 A2984 RMK A01 T02620155  RH  053%=      5-min Rain = 0
KFLS 241730Z 21018G24KT 27/16 A2984 RMK A01 T02650158  RH  053%=      5-min Rain = 0
KFLS 241735Z 20018G24KT 27/16 A2984 RMK A01 T02660158  RH  053%=      5-min Rain = 0
KFLS 241740Z 20018KT 27/16 A2984 RMK A01 T02660158  RH  053%=      5-min Rain = 0
KFLS 241745Z 19017KT 27/16 A2984 RMK A01 T02690159  RH  052%=      5-min Rain = 0
KFLS 241750Z 19017KT 27/16 A2984 RMK A01 T02730158  RH  051%=      5-min Rain = 0
KFLS 241755Z 20013G18KT 28/16 A2984 RMK A01 T02780158  RH  049%=      5-min Rain = 0
KFLS 241800Z 21015G22KT 28/16 A2984 RMK A01 T02790158  RH  049%=      5-min Rain = 0
KFLS 241805Z 21014G20KT 27/16 A2984 RMK A01 T02740156  RH  050%=      5-min Rain = 0
KFLS 241810Z 21014G22KT 28/16 A2984 RMK A01 T02760158  RH  050%=      5-min Rain = 0
KFLS 241815Z 19016G22KT 28/16 A2984 RMK A01 T02770157  RH  049%=      5-min Rain = 0
KFLS 241820Z 19013G19KT 28/16 A2984 RMK A01 T02790155  RH  048%=      5-min Rain = 0
KFLS 241825Z 20012KT 28/16 A2983 RMK A01 T02820157  RH  048%=      5-min Rain = 0
KFLS 241830Z 19016KT 28/16 A2983 RMK A01 T02800157  RH  048%=      5-min Rain = 0
KFLS 241835Z 19015G21KT 28/16 A2983 RMK A01 T02800155  RH  048%=      5-min Rain = 0
KFLS 241840Z 20013G19KT 28/15 A2983 RMK A01 T02820153  RH  046%=      5-min Rain = 0
KFLS 241845Z 19014G20KT 28/16 A2983 RMK A01 T02830156  RH  047%=      5-min Rain = 0
KFLS 241850Z 19013G22KT 28/16 A2983 RMK A01 T02810155  RH  047%=      5-min Rain = 0
KFLS 241855Z 19015G21KT 28/16 A2982 RMK A01 T02820155  RH  047%=      5-min Rain = 0
KFLS 241900Z 18011G17KT 29/15 A2982 RMK A01 T02850153  RH  046%=      5-min Rain = 0
KFLS 241905Z 19014G19KT 29/16 A2982 RMK A01 T02880155  RH  046%=      5-min Rain = 0
KFLS 241910Z 19013G18KT 28/15 A2982 RMK A01 T02820150  RH  046%=      5-min Rain = 0
KFLS 241915Z 19011G17KT 29/15 A2982 RMK A01 T02850150  RH  045%=      5-min Rain = 0
KFLS 241920Z 19012G17KT 29/15 A2981 RMK A01 T02930154  RH  044%=      5-min Rain = 0
KFLS 241925Z 18010G16KT 29/15 A2981 RMK A01 T02930148  RH  042%=      5-min Rain = 0
KFLS 241930Z 19012G17KT 30/15 A2981 RMK A01 T02960153  RH  043%=      5-min Rain = 0
KFLS 241935Z 19011G18KT 29/15 A2981 RMK A01 T02920150  RH  043%=      5-min Rain = 0
KFLS 241940Z 16012KT 29/15 A298 RMK A01 T02940152  RH  043%=      5-min Rain = 0
KFLS 241945Z 17013G18KT 29/15 A298 RMK A01 T02910150  RH  043%=      5-min Rain = 0
KFLS 241950Z 18010KT 30/15 A298 RMK A01 T02950151  RH  043%=      5-min Rain = 0
KFLS 241955Z 20009G14KT 30/15 A298 RMK A01 T02970149  RH  041%=      5-min Rain = 0
KFLS 242000Z 18011G17KT 30/14 A298 RMK A01 T02950143  RH  040%=      5-min Rain = 0
KFLS 242005Z 15006G13KT 29/14 A298 RMK A01 T02940144  RH  041%=      5-min Rain = 0
KFLS 242010Z 17013G19KT 30/15 A298 RMK A01 T02980148  RH  041%=      5-min Rain = 0
KFLS 242015Z 18012G17KT 30/14 A298 RMK A01 T02990143  RH  040%=      5-min Rain = 0
KFLS 242020Z 18010G15KT 30/14 A298 RMK A01 T02970138  RH  039%=      5-min Rain = 0
KFLS 242025Z 18010G19KT 30/14 A2979 RMK A01 T03010142  RH  039%=      5-min Rain = 0
KFLS 242030Z 18012G19KT 30/15 A2979 RMK A01 T03000146  RH  040%=      5-min Rain = 0
KFLS 242035Z 17011G17KT 30/14 A2979 RMK A01 T03000144  RH  039%=      5-min Rain = 0
KFLS 242040Z 19010G17KT 30/14 A2978 RMK A01 T02990138  RH  038%=      5-min Rain = 0
KFLS 242045Z 19009G14KT 30/14 A2978 RMK A01 T03040138  RH  037%=      5-min Rain = 0
KFLS 242050Z 19010G17KT 30/14 A2978 RMK A01 T03030143  RH  038%=      5-min Rain = 0
KFLS 242055Z 16013KT 30/15 A2977 RMK A01 T02990146  RH  040%=      5-min Rain = 0
KFLS 242100Z 16011KT 30/15 A2977 RMK A01 T02990149  RH  041%=      5-min Rain = 0
KFLS 242105Z 17011G18KT 30/15 A2976 RMK A01 T03020153  RH  041%=      5-min Rain = 0
KFLS 242110Z 15016KT 31/15 A2976 RMK A01 T03060152  RH  040%=      5-min Rain = 0
KFLS 242115Z 17012G19KT 30/15 A2976 RMK A01 T03040150  RH  040%=      5-min Rain = 0
KFLS 242120Z 15013G19KT 30/15 A2976 RMK A01 T03030149  RH  040%=      5-min Rain = 0
KFLS 242125Z 16014KT 30/15 A2975 RMK A01 T03040148  RH  039%=      5-min Rain = 0
KFLS 242130Z 16012KT 30/15 A2975 RMK A01 T02950145  RH  041%=      5-min Rain = 0
KFLS 242135Z 17012G19KT 31/14 A2975 RMK A01 T03050143  RH  038%=      5-min Rain = 0
KFLS 242140Z 17013KT 31/15 A2974 RMK A01 T03050145  RH  039%=      5-min Rain = 0
KFLS 242145Z 17011G16KT 30/14 A2974 RMK A01 T03040143  RH  038%=      5-min Rain = 0
KFLS 242150Z 16010G18KT 31/14 A2973 RMK A01 T03080142  RH  037%=      5-min Rain = 0
KFLS 242155Z 17009G15KT 31/14 A2973 RMK A01 T03060142  RH  037%=      5-min Rain = 0
KFLS 242200Z 14011G16KT 31/14 A2972 RMK A01 T03070138  RH  036%=      5-min Rain = 0
KFLS 242205Z 15009G18KT 31/14 A2972 RMK A01 T03080135  RH  035%=      5-min Rain = 0
KFLS 242210Z 15010KT 31/14 A2972 RMK A01 T03080141  RH  037%=      5-min Rain = 0
KFLS 242215Z 14012G19KT 31/14 A2971 RMK A01 T03070138  RH  036%=      5-min Rain = 0
KFLS 242220Z 15011G19KT 31/14 A2971 RMK A01 T03080139  RH  036%=      5-min Rain = 0
KFLS 242225Z 16010G16KT 32/14 A2971 RMK A01 T03150139  RH  035%=      5-min Rain = 0
KFLS 242230Z 15008KT 30/13 A2971 RMK A01 T02980133  RH  037%=      5-min Rain = 0
KFLS 242235Z 14008KT 30/13 A2971 RMK A01 T03010134  RH  037%=      5-min Rain = 0
KFLS 242240Z 17011G17KT 30/13 A2971 RMK A01 T03040130  RH  035%=      5-min Rain = 0
KFLS 242245Z 14007KT 31/13 A297 RMK A01 T03080128  RH  034%=      5-min Rain = 0
KFLS 242250Z 16010G17KT 31/13 A297 RMK A01 T03050131  RH  035%=      5-min Rain = 0
KFLS 242255Z 15012KT 31/14 A2969 RMK A01 T03050138  RH  037%=      5-min Rain = 0
KFLS 242300Z 13011KT 31/14 A2969 RMK A01 T03070138  RH  036%=      5-min Rain = 0
KFLS 242305Z 15012KT 30/14 A2969 RMK A01 T02960136  RH  038%=      5-min Rain = 0
KFLS 242310Z 15011KT 29/13 A2971 RMK A01 T02900134  RH  039%=      5-min Rain = 0
KFLS 242315Z 14012KT 29/14 A2971 RMK A01 T02870139  RH  041%=      5-min Rain = 0
KFLS 242320Z 16012KT 29/14 A2971 RMK A01 T02860142  RH  042%=      5-min Rain = 0
KFLS 242325Z 15010KT 29/14 A2971 RMK A01 T02850143  RH  043%=      5-min Rain = 0
KFLS 242330Z 14011KT 28/14 A2971 RMK A01 T02820144  RH  044%=      5-min Rain = 0
KFLS 242335Z 14011KT 28/15 A297 RMK A01 T02800146  RH  045%=      5-min Rain = 0
KFLS 242340Z 15011KT 28/15 A297 RMK A01 T02790145  RH  045%=      5-min Rain = 0
KFLS 242345Z 16012KT 28/15 A297 RMK A01 T02780145  RH  045%=      5-min Rain = 0
KFLS 242350Z 16011KT 28/15 A297 RMK A01 T02770145  RH  046%=      5-min Rain = 0
KFLS 242355Z 16011KT 28/15 A297 RMK A01 T02760146  RH  046%=      5-min Rain = 0
KFLS 250000Z 16012KT 28/15 A2969 RMK A01 T02750146  RH  046%=      5-min Rain = 0
KFLS 250005Z 18014G20KT 27/15 A2971 RMK A01 T02740145  RH  046%=      5-min Rain = 0
KFLS 250010Z 24030G38KT 24/07 A2973 RMK A01 T02430072  RH  034%=      5-min Rain = 0
KFLS 250015Z 25021G32KT 21/09 A2975 RMK A01 T02090086  RH  046%=      5-min Rain = 0
KFLS 250020Z 25025G39KT 19/11 A2975 RMK A01 T01870107  RH  061%=      5-min Rain = 0
KFLS 250025Z 23032G39KT 17/12 A2974 RMK A01 T01710117  RH  072%=      5-min Rain = 0.03
KFLS 250030Z 24033G41KT 17/12 A2975 RMK A01 T01650118  RH  075%=      5-min Rain = 0.06
KFLS 250035Z 24028G35KT 17/12 A2976 RMK A01 T01650117  RH  074%=      5-min Rain = 0.04
KFLS 250040Z 24024G31KT 17/12 A2977 RMK A01 T01680116  RH  073%=      5-min Rain = 0.03
KFLS 250045Z 25021G28KT 17/12 A2976 RMK A01 T01680118  RH  074%=      5-min Rain = 0.01
KFLS 250050Z 26021G26KT 17/12 A2975 RMK A01 T01690115  RH  072%=      5-min Rain = 0.01
KFLS 250055Z 26020KT 17/12 A2975 RMK A01 T01690115  RH  072%=      5-min Rain = 0
KFLS 250100Z 26018KT 17/11 A2975 RMK A01 T01710114  RH  071%=      5-min Rain = 0.01
KFLS 250105Z 25020G26KT 17/11 A2975 RMK A01 T01740112  RH  068%=      5-min Rain = 0.01
KFLS 250110Z 26020G26KT 18/11 A2975 RMK A01 T01760108  RH  066%=      5-min Rain = 0
KFLS 250115Z 28018G27KT 18/10 A2975 RMK A01 T01780104  RH  063%=      5-min Rain = 0.01
KFLS 250120Z 29019KT 18/11 A2974 RMK A01 T01760107  RH  065%=      5-min Rain = 0.01
KFLS 250125Z 30015KT 17/11 A2974 RMK A01 T01730112  RH  069%=      5-min Rain = 0
KFLS 250130Z 33017G22KT 17/11 A2972 RMK A01 T01730112  RH  068%=      5-min Rain = 0.01
KFLS 250135Z 33019G24KT 18/11 A297 RMK A01 T01780109  RH  065%=      5-min Rain = 0
KFLS 250140Z 33017G22KT 18/11 A297 RMK A01 T01800109  RH  064%=      5-min Rain = 0
KFLS 250145Z 35018G23KT 19/10 A2969 RMK A01 T01850104  RH  060%=      5-min Rain = 0
KFLS 250150Z 00017G23KT 19/11 A2969 RMK A01 T01860105  RH  060%=      5-min Rain = 0
KFLS 250155Z 00014KT 19/11 A297 RMK A01 T01850106  RH  061%=      5-min Rain = 0
KFLS 250200Z 00012KT 18/11 A2971 RMK A01 T01840111  RH  063%=      5-min Rain = 0
KFLS 250205Z 02012KT 18/11 A297 RMK A01 T01800112  RH  066%=      5-min Rain = 0
KFLS 250210Z 02013KT 18/11 A297 RMK A01 T01780112  RH  066%=      5-min Rain = 0
KFLS 250215Z 02014KT 18/11 A2969 RMK A01 T01800109  RH  064%=      5-min Rain = 0
KFLS 250220Z 03009G14KT 18/11 A2971 RMK A01 T01800110  RH  065%=      5-min Rain = 0
KFLS 250225Z 13013G28KT 18/12 A2973 RMK A01 T01780117  RH  069%=      5-min Rain = 0
KFLS 250230Z 11018G30KT 19/11 A2975 RMK A01 T01850111  RH  063%=      5-min Rain = 0
KFLS 250235Z 09012G19KT 19/10 A2975 RMK A01 T01930102  RH  057%=      5-min Rain = 0
KFLS 250240Z 12014KT 18/12 A2975 RMK A01 T01820116  RH  067%=      5-min Rain = 0
KFLS 250245Z 11015KT 18/12 A2973 RMK A01 T01780117  RH  069%=      5-min Rain = 0
KFLS 250250Z 10015G20KT 18/11 A2974 RMK A01 T01790113  RH  066%=      5-min Rain = 0
KFLS 250255Z 12012KT 18/11 A2973 RMK A01 T01810112  RH  065%=      5-min Rain = 0
KFLS 250300Z 11011G16KT 18/11 A2973 RMK A01 T01800112  RH  065%=      5-min Rain = 0
KFLS 250305Z 10010G15KT 18/11 A2972 RMK A01 T01800110  RH  065%=      5-min Rain = 0
KFLS 250310Z 09015G24KT 18/12 A297 RMK A01 T01750115  RH  069%=      5-min Rain = 0
KFLS 250315Z 07021G27KT 18/11 A2969 RMK A01 T01790110  RH  065%=      5-min Rain = 0
KFLS 250320Z 07023G31KT 18/11 A2968 RMK A01 T01770112  RH  067%=      5-min Rain = 0
KFLS 250325Z 06020G27KT 18/11 A2969 RMK A01 T01750113  RH  068%=      5-min Rain = 0
KFLS 250330Z 07023G30KT 18/11 A2968 RMK A01 T01760113  RH  068%=      5-min Rain = 0
KFLS 250335Z 07022G29KT 18/11 A2968 RMK A01 T01780110  RH  066%=      5-min Rain = 0
KFLS 250340Z 07022G33KT 18/11 A2969 RMK A01 T01760111  RH  067%=      5-min Rain = 0
KFLS 250345Z 08019G28KT 18/11 A297 RMK A01 T01750113  RH  068%=      5-min Rain = 0
KFLS 250350Z 08019G27KT 18/11 A2971 RMK A01 T01760112  RH  067%=      5-min Rain = 0
KFLS 250355Z 08020G27KT 18/11 A297 RMK A01 T01750113  RH  068%=      5-min Rain = 0
KFLS 250400Z 09020G27KT 17/11 A2971 RMK A01 T01740113  RH  069%=      5-min Rain = 0
KFLS 250405Z 09019G25KT 17/12 A2972 RMK A01 T01710115  RH  071%=      5-min Rain = 0
KFLS 250410Z 08019G25KT 17/12 A2972 RMK A01 T01680117  RH  073%=      5-min Rain = 0
KFLS 250415Z 08020G26KT 17/12 A2972 RMK A01 T01660118  RH  074%=      5-min Rain = 0
KFLS 250420Z 08022G27KT 16/12 A2973 RMK A01 T01640119  RH  076%=      5-min Rain = 0
KFLS 250425Z 08023G30KT 16/12 A2973 RMK A01 T01610121  RH  079%=      5-min Rain = 0
KFLS 250430Z 08022G29KT 16/12 A2974 RMK A01 T01580123  RH  081%=      5-min Rain = 0
KFLS 250435Z 08020G27KT 16/12 A2974 RMK A01 T01560124  RH  083%=      5-min Rain = 0
KFLS 250440Z 09020G29KT 16/13 A2975 RMK A01 T01550125  RH  084%=      5-min Rain = 0
KFLS 250445Z 09023G31KT 16/12 A2975 RMK A01 T01550124  RH  083%=      5-min Rain = 0
KFLS 250450Z 09022G33KT 16/12 A2975 RMK A01 T01550124  RH  083%=      5-min Rain = 0
KFLS 250455Z 09022G30KT 16/12 A2976 RMK A01 T01550123  RH  083%=      5-min Rain = 0

Page generated in 0.0095 seconds.